Latest Weather Observations for Walgett

IDN60801

Issued at 2:35 pm EDT Thursday 23 October 2014 (issued every 30 minutes, with the page automatically refreshed every 10 minutes)

About weather observations | Map of weather stations | Latest weather observations for NSW | Other Formats
Station Details ID: 052088 Name: WALGETT AIRPORT AWS Lat: -30.04 Lon: 148.12 Height: 133.0 m
Data from the previous 72 hours. | See also: Recent months at Walgett
Date/Time
EDT
Temp
°C
App
Temp
°C
Dew
Point
Rel
Hum
%
Delta-T
°C
Wind Press
QNH
hPa
Press
MSL
hPa
Rain
since 9 am
mm
Dir
 
Spd
km/h
Gust
km/h
Spd
kts
Gust
kts
23/02:30pm 34.6 32.2 6.8 18 15.3 WSW 9 17 5 9 1016.3 1015.9 0.0
23/02:00pm 33.8 30.6 7.0 19 14.8 W 13 20 7 11 1016.8 1016.4 0.0
23/01:30pm 34.0 30.9 7.1 19 14.9 NW 13 28 7 15 1017.3 1016.8 0.0
23/01:00pm 33.3 30.8 8.0 21 14.1 WNW 11 20 6 11 1018.0 1017.6 0.0
23/12:30pm 31.8 28.5 8.1 23 13.2 N 15 26 8 14 1018.4 1018.0 0.0
23/12:00pm 31.9 28.6 9.4 25 12.8 NNE 17 26 9 14 1018.8 1018.4 0.0
23/11:30am 30.5 27.2 9.4 27 11.9 N 17 28 9 15 1019.4 1019.0 0.0
23/11:00am 30.2 26.4 9.7 28 11.6 N 20 32 11 17 1019.6 1019.2 0.0
23/10:30am 29.3 24.8 9.9 30 11.0 N 24 32 13 17 1019.8 1019.4 0.0
23/10:00am 28.9 24.4 10.1 31 10.6 N 24 33 13 18 1019.9 1019.5 0.0
23/09:30am 28.6 24.8 11.2 34 10.0 N 22 28 12 15 1019.9 1019.5 0.0
23/09:00am 26.6 23.0 10.7 37 9.0 NNE 20 28 11 15 1019.8 1019.4 0.0
23/08:30am 25.4 21.8 10.4 39 8.4 N 20 24 11 13 1019.5 1019.1 0.0
23/08:00am 23.8 21.5 10.5 43 7.4 NE 13 17 7 9 1019.3 1018.9 0.0
23/07:30am 22.7 20.8 10.5 46 6.7 ESE 11 17 6 9 1019.0 1018.6 0.0
23/07:00am 21.8 20.6 10.3 48 6.3 N 7 9 4 5 1018.6 1018.2 0.0
23/06:30am 21.8 19.0 10.0 47 6.4 NNE 15 20 8 11 1018.2 1017.8 0.0
23/06:00am 22.3 18.8 10.1 46 6.7 NNE 19 24 10 13 1017.6 1017.2 0.0
23/05:30am 21.8 18.7 10.3 48 6.3 N 17 22 9 12 1017.1 1016.7 0.0
23/05:00am 22.1 18.3 9.9 46 6.6 NE 20 24 11 13 1017.4 1017.0 0.0
23/04:56am 22.3 18.4 9.5 44 6.9 NNE 20 28 11 15 1017.1 1016.7 0.0
23/04:30am 27.3 22.7 6.7 27 10.9 SSE 20 30 11 16 1017.8 1017.4 0.0
23/04:00am 24.1 20.5 8.5 37 8.4 SSE 17 26 9 14 1018.5 1018.1 0.0
23/03:30am 23.8 19.0 9.0 39 8.0 S 24 33 13 18 1018.9 1018.5 0.0
23/03:00am 22.5 20.2 10.3 46 6.7 SE 13 22 7 12 1019.2 1018.8 0.0
23/02:30am 22.2 17.2 11.0 49 6.2 SSE 28 37 15 20 1019.8 1019.4 0.0
23/02:00am 22.9 17.0 11.3 48 6.5 S 33 43 18 23 1020.4 1020.0 0.0
23/01:30am 23.0 17.0 12.0 50 6.3 S 35 46 19 25 1021.3 1020.9 0.0
23/01:00am 24.0 16.9 11.0 44 7.3 S 39 52 21 28 1021.4 1021.0 0.0
23/12:50am 25.4 17.9 9.3 36 8.8 SSW 39 44 21 24 1021.2 1020.8 0.0
23/12:30am 25.1 22.6 8.1 34 9.1 WSW 11 15 6 8 1020.6 1020.2 0.0
23/12:00am 26.2 22.8 9.1 34 9.4 NW 17 22 9 12 1020.1 1019.7 0.0
 
Date/Time
EDT
Temp
°C
App
Temp
°C
Dew
Point
Rel
Hum
%
Delta-T
°C
Wind Press
QNH
hPa
Press
MSL
hPa
Rain
since 9 am
mm
Dir
 
Spd
km/h
Gust
km/h
Spd
kts
Gust
kts
22/11:30pm 24.9 22.2 8.8 36 8.7 N 13 15 7 8 1019.3 1018.9 0.0
22/11:00pm 24.5 21.4 8.9 37 8.4 NNE 15 17 8 9 1019.1 1018.7 0.0
22/10:30pm 23.5 20.6 8.0 37 8.2 NE 13 15 7 8 1019.2 1018.8 0.0
22/10:00pm 24.5 21.5 7.6 34 8.9 NE 13 15 7 8 1019.2 1018.8 0.0
22/09:30pm 25.7 22.3 7.8 32 9.6 NE 15 17 8 9 1019.0 1018.6 0.0
22/09:00pm 26.3 23.6 8.8 33 9.6 NE 13 15 7 8 1018.7 1018.3 0.0
22/08:30pm 27.0 24.9 8.4 31 10.1 ENE 9 11 5 6 1018.5 1018.1 0.0
22/08:00pm 28.1 25.8 8.9 30 10.6 ENE 11 13 6 7 1018.1 1017.7 0.0
22/07:30pm 28.8 26.4 8.5 28 11.2 NE 11 13 6 7 1017.9 1017.5 0.0
22/07:00pm 30.5 28.5 8.8 26 12.1 NE 9 13 5 7 1017.7 1017.3 0.0
22/06:30pm 31.6 29.7 9.2 25 12.7 E 9 17 5 9 1017.5 1017.1 0.0
22/06:00pm 31.9 30.3 8.8 24 13.0 NNW 7 11 4 6 1017.5 1017.1 0.0
22/05:30pm 32.2 30.5 9.7 25 12.9 N 9 13 5 7 1017.8 1017.4 0.0
22/05:00pm 32.4 30.7 9.9 25 12.9 NW 9 13 5 7 1018.0 1017.6 0.0
22/04:30pm 32.2 30.2 10.3 26 12.6 NE 11 20 6 11 1018.2 1017.8 0.0
22/04:00pm 31.9 30.8 10.6 27 12.3 W 7 13 4 7 1018.5 1018.1 0.0
22/03:30pm 32.4 30.9 10.4 26 12.7 NNE 9 15 5 8 1019.0 1018.6 0.0
22/03:00pm 31.3 29.0 10.6 28 11.9 NNE 13 20 7 11 1019.4 1019.0 0.0
22/02:30pm 31.8 30.4 12.1 30 11.7 NNW 11 30 6 16 1020.0 1019.6 0.0
22/02:00pm 30.1 27.6 11.1 31 11.0 N 15 26 8 14 1020.5 1020.1 0.0
22/01:30pm 29.5 27.1 11.5 33 10.5 N 15 22 8 12 1021.0 1020.6 0.0
22/01:00pm 29.0 26.3 11.6 34 10.1 N 17 32 9 17 1021.6 1021.2 0.0
22/12:30pm 28.8 25.3 12.2 35 9.7 NNE 22 39 12 21 1022.2 1021.8 0.0
22/12:00pm 28.0 24.3 11.5 35 9.5 NNE 22 33 12 18 1022.7 1022.3 0.0
22/11:30am 27.0 23.7 11.5 38 8.9 NNE 20 28 11 15 1023.2 1022.8 0.0
22/11:00am 25.7 20.6 10.7 39 8.4 NNE 28 39 15 21 1023.6 1023.2 0.0
22/10:30am 24.8 19.8 11.0 42 7.8 NNE 28 37 15 20 1023.9 1023.6 0.0
22/10:00am 24.0 18.6 11.0 44 7.3 NNE 30 41 16 22 1024.2 1023.9 0.0
22/09:30am 23.2 17.9 11.3 47 6.7 NNE 30 39 16 21 1024.5 1024.2 0.0
22/09:00am 21.9 16.2 11.0 50 6.0 NE 32 43 17 23 1024.3 1024.0 0.0
22/08:30am 21.1 15.7 10.9 52 5.6 NE 30 37 16 20 1024.1 1023.8 0.0
22/08:00am 19.9 15.1 10.3 54 5.2 NE 26 35 14 19 1024.1 1023.8 0.0
22/07:30am 19.3 13.7 10.3 56 4.9 NE 30 43 16 23 1023.7 1023.3 0.0
22/07:00am 18.7 13.9 10.3 58 4.5 NE 26 37 14 20 1023.4 1023.0 0.0
22/06:30am 18.6 14.1 10.2 58 4.5 ENE 24 32 13 17 1023.1 1022.7 0.0
22/06:00am 19.1 13.2 10.4 57 4.7 NE 32 41 17 22 1022.7 1022.3 0.0
22/05:30am 19.5 15.1 10.5 56 4.9 ENE 24 33 13 18 1022.4 1022.0 0.0
22/05:00am 19.2 15.1 10.2 56 4.8 ENE 22 30 12 16 1022.2 1021.8 0.0
22/04:30am 18.9 14.9 9.1 53 5.2 ENE 20 28 11 15 1022.0 1021.6 0.0
22/04:00am 19.3 15.3 9.2 52 5.3 E 20 30 11 16 1022.0 1021.6 0.0
22/03:30am 19.5 15.1 8.8 50 5.6 E 22 30 12 16 1022.1 1021.7 0.0
22/03:00am 19.7 15.2 8.7 49 5.8 E 22 32 12 17 1022.2 1021.8 0.0
22/02:30am 20.0 15.1 8.4 47 6.1 E 24 32 13 17 1022.4 1022.0 0.0
22/02:00am 20.6 16.4 8.3 45 6.4 E 20 28 11 15 1022.6 1022.2 0.0
22/01:30am 21.5 16.6 8.4 43 6.9 E 24 33 13 18 1022.8 1022.4 0.0
22/01:00am 22.2 17.3 8.3 41 7.3 E 24 32 13 17 1023.0 1022.6 0.0
22/12:30am 23.0 18.7 7.9 38 8.0 E 20 32 11 17 1023.2 1022.8 0.0
22/12:00am 23.6 19.4 8.1 37 8.2 E 20 35 11 19 1023.3 1022.9 0.0
 
Date/Time
EDT
Temp
°C
App
Temp
°C
Dew
Point
Rel
Hum
%
Delta-T
°C
Wind Press
QNH
hPa
Press
MSL
hPa
Rain
since 9 am
mm
Dir
 
Spd
km/h
Gust
km/h
Spd
kts
Gust
kts
21/11:30pm 24.1 20.0 7.7 35 8.7 E 19 26 10 14 1023.3 1022.9 0.0
21/11:00pm 24.7 20.5 7.4 33 9.1 E 19 26 10 14 1023.1 1022.7 0.0
21/10:30pm 25.2 21.8 7.8 33 9.3 E 15 19 8 10 1023.0 1022.6 0.0
21/10:00pm 25.5 22.6 8.1 33 9.3 E 13 19 7 10 1023.0 1022.6 0.0
21/09:30pm 25.6 22.5 7.2 31 9.7 E 13 17 7 9 1022.8 1022.4 0.0
21/09:00pm 26.4 23.7 7.4 30 10.1 E 11 15 6 8 1022.5 1022.1 0.0
21/08:30pm 26.8 24.5 7.3 29 10.4 E 9 11 5 6 1022.2 1021.8 0.0
21/08:00pm 27.5 25.1 6.8 27 11.0 ENE 9 11 5 6 1022.0 1021.6 0.0
21/07:30pm 29.2 26.7 8.3 27 11.5 E 11 15 6 8 1021.6 1021.2 0.0
21/07:00pm 30.1 27.5 7.9 25 12.2 ENE 11 17 6 9 1021.4 1021.0 0.0
21/06:30pm 31.3 28.8 8.3 24 12.8 E 11 20 6 11 1021.2 1020.8 0.0
21/06:00pm 31.8 30.0 8.1 23 13.1 ENE 7 11 4 6 1021.1 1020.7 0.0
21/05:30pm 31.7 29.5 8.0 23 13.2 NE 9 19 5 10 1021.2 1020.8 0.0
21/05:00pm 31.9 29.2 8.8 24 13.0 N 13 19 7 10 1021.2 1020.8 0.0
21/04:30pm 32.6 30.4 9.4 24 13.2 N 11 17 6 9 1021.3 1020.9 0.0
21/04:00pm 32.2 30.7 9.1 24 13.0 WSW 7 13 4 7 1021.5 1021.1 0.0
21/03:30pm 31.5 29.6 9.1 25 12.6 ENE 9 15 5 8 1022.0 1021.6 0.0
21/03:00pm 31.2 29.2 8.8 25 12.5 N 9 20 5 11 1022.4 1022.0 0.0
21/02:30pm 31.3 27.4 9.5 26 12.4 NE 20 32 11 17 1022.8 1022.4 0.0
21/02:00pm 30.6 27.3 9.5 27 11.9 NNW 17 24 9 13 1023.4 1023.0 0.0
21/01:30pm 30.7 28.3 10.1 28 11.8 NNE 13 24 7 13 1024.0 1023.7 0.0
21/01:00pm 29.4 25.5 9.5 29 11.1 NE 20 30 11 16 1024.5 1024.2 0.0
21/12:30pm 28.8 25.2 10.0 31 10.6 N 19 28 10 15 1025.2 1024.8 0.0
21/12:00pm 28.1 23.8 9.4 31 10.4 NNE 22 33 12 18 1025.6 1025.2 0.0
21/11:30am 28.7 24.8 10.8 33 10.2 NNE 22 39 12 21 1026.0 1025.6 0.0
21/11:00am 27.4 22.2 10.2 34 9.6 NE 28 41 15 22 1026.3 1025.9 0.0
21/10:30am 25.7 20.0 9.9 37 8.8 NNE 30 43 16 23 1026.5 1026.1 0.0
21/10:00am 25.2 20.5 10.6 40 8.1 NNE 26 39 14 21 1026.7 1026.3 0.0
21/09:30am 24.7 19.3 10.9 42 7.8 NE 30 39 16 21 1026.6 1026.2 0.0
21/09:00am 23.8 19.0 11.5 46 6.9 NE 28 41 15 22 1026.4 1026.0 0.0
21/08:30am 22.8 18.0 11.5 49 6.4 NE 28 37 15 20 1026.2 1025.8 0.0
21/08:00am 21.3 16.6 10.8 51 5.8 NE 26 37 14 20 1026.0 1025.6 0.0
21/07:30am 19.9 16.7 10.0 53 5.3 ENE 17 24 9 13 1025.7 1025.3 0.0
21/07:00am 19.2 16.0 9.9 55 5.0 ENE 17 24 9 13 1025.3 1024.9 0.0
21/06:30am 18.9 15.1 9.7 55 4.9 ENE 20 26 11 14 1024.5 1024.2 0.0
21/06:00am 18.9 14.7 9.7 55 4.9 ENE 22 30 12 16 1024.0 1023.7 0.0
21/05:30am 19.2 15.3 9.4 53 5.2 E 20 30 11 16 1023.6 1023.2 0.0
21/05:00am 19.3 14.7 9.5 53 5.2 ENE 24 35 13 19 1023.1 1022.7 0.0
21/04:30am 19.1 14.9 9.6 54 5.1 ENE 22 32 12 17 1023.2 1022.8 0.0
21/04:00am 19.5 15.3 9.7 53 5.2 E 22 30 12 16 1023.1 1022.7 0.0
21/03:30am 19.8 15.5 9.4 51 5.5 E 22 33 12 18 1023.0 1022.6 0.0
21/03:00am 20.2 16.3 9.5 50 5.7 E 20 30 11 16 1023.0 1022.6 0.0
21/02:30am 20.2 16.4 9.2 49 5.9 E 19 32 10 17 1023.0 1022.6 0.0
21/02:00am 20.6 16.8 9.2 48 6.1 E 19 26 10 14 1023.0 1022.6 0.0
21/01:30am 21.2 17.3 9.4 47 6.3 E 20 28 11 15 1023.1 1022.7 0.0
21/01:00am 21.7 17.8 9.3 45 6.6 E 20 28 11 15 1023.3 1022.9 0.0
21/12:30am 22.7 18.4 9.5 43 7.2 E 22 32 12 17 1023.2 1022.8 0.0
21/12:00am 23.6 18.9 9.2 40 7.8 E 24 32 13 17 1023.1 1022.7 0.0
 
Date/Time
EDT
Temp
°C
App
Temp
°C
Dew
Point
Rel
Hum
%
Delta-T
°C
Wind Press
QNH
hPa
Press
MSL
hPa
Rain
since 9 am
mm
Dir
 
Spd
km/h
Gust
km/h
Spd
kts
Gust
kts
20/11:30pm 24.5 20.6 7.2 33 9.1 E 17 24 9 13 1023.1 1022.7 0.0
20/11:00pm 25.5 21.1 6.7 30 9.8 E 19 26 10 14 1022.8 1022.4 0.0
20/10:30pm 26.3 21.7 6.3 28 10.5 E 20 30 11 16 1022.6 1022.2 0.0
20/10:00pm 26.3 21.3 6.3 28 10.4 E 22 32 12 17 1022.4 1022.0 0.0
20/09:47pm 26.4 20.1 5.9 27 10.7 ESE 28 41 15 22 1022.2 1021.8 0.0
20/09:30pm 24.6 22.0 3.3 25 10.5 ESE 6 6 3 3 1021.7 1021.3 0.0
20/09:00pm 24.5 21.4 1.4 22 10.9 ESE 7 7 4 4 1021.4 1021.0 0.0
20/08:30pm 26.4 23.4 1.7 20 11.9 SE 7 9 4 5 1021.1 1020.7 0.0
20/08:00pm 28.6 25.3 2.7 19 12.9 ESE 9 9 5 5 1020.7 1020.3 0.0
20/07:30pm 30.2 27.4 3.3 18 13.7 ESE 7 9 4 5 1020.4 1020.0 0.0
20/07:00pm 31.5 28.2 2.7 16 14.6 ESE 9 15 5 8 1020.1 1019.7 0.0
20/06:30pm 32.2 28.3 3.2 16 14.9 SE 13 17 7 9 1020.0 1019.6 0.0
20/06:00pm 33.0 29.4 2.9 15 15.4 SSE 11 19 6 10 1019.8 1019.4 0.0
20/05:30pm 34.2 29.1 2.9 14 16.2 SSE 19 24 10 13 1019.7 1019.3 0.0
20/05:00pm 34.0 31.9 3.7 15 15.8 N 4 13 2 7 1019.9 1019.5 0.0
20/04:30pm 33.8 29.8 2.6 14 16.0 S 13 20 7 11 1020.0 1019.6 0.0
20/04:00pm 34.1 31.0 3.8 15 15.9 S 9 19 5 10 1020.1 1019.7 0.0
20/03:30pm 33.9 30.8 3.6 15 15.8 SSE 9 20 5 11 1020.5 1020.1 0.0
20/03:00pm 34.2 29.6 3.9 15 15.9 SE 17 26 9 14 1021.0 1020.6 0.0

Other Formats:

Comma delimited format used in spreadsheet applications
http://www.bom.gov.au/fwo/IDN60801/IDN60801.95715.axf

JavaScript Object Notation format (JSON) in row-major order
http://www.bom.gov.au/fwo/IDN60801/IDN60801.95715.json